createdAt,value
2023-02-22T00:02:10.578Z,96439.84
2023-02-22T00:04:39.569Z,96440.81
2023-02-22T00:07:07.188Z,96438.50
2023-02-22T00:09:34.060Z,96437.56
2023-02-22T00:12:01.252Z,96438.59
2023-02-22T00:14:28.442Z,96429.78
2023-02-22T00:16:59.527Z,96431.41
2023-02-22T00:19:28.008Z,96428.44
2023-02-22T00:21:54.882Z,96424.03
2023-02-22T00:24:24.441Z,96423.19
2023-02-22T00:26:55.399Z,96410.28
2023-02-22T00:29:23.888Z,96416.94
2023-02-22T00:31:50.798Z,96417.59
2023-02-22T00:34:17.667Z,96417.31
2023-02-22T00:36:49.055Z,96418.25
2023-02-22T00:39:16.470Z,96411.41
2023-02-22T00:41:43.660Z,96409.59
2023-02-22T00:44:10.984Z,96411.09
2023-02-22T00:46:38.201Z,96410.22
2023-02-22T00:49:05.197Z,96417.09
2023-02-22T00:51:33.813Z,96417.44
2023-02-22T00:54:00.829Z,96404.19
2023-02-22T00:56:27.751Z,96409.75
2023-02-22T00:58:54.537Z,96416.16
2023-02-22T01:01:21.385Z,96419.47
2023-02-22T01:03:48.308Z,96410.31
2023-02-22T01:06:15.274Z,96412.91
2023-02-22T01:08:45.686Z,96405.41
2023-02-22T01:11:15.571Z,96405.28
2023-02-22T01:13:42.661Z,96403.66
2023-02-22T01:16:09.470Z,96405.28
2023-02-22T01:18:37.256Z,96407.94
2023-02-22T01:21:05.768Z,96402.09
2023-02-22T01:23:33.216Z,96404.41
2023-02-22T01:26:00.010Z,96393.03
2023-02-22T01:28:26.786Z,96400.25
2023-02-22T01:30:56.220Z,96396.22
2023-02-22T01:33:23.394Z,96388.59
2023-02-22T01:35:51.215Z,96387.25
2023-02-22T01:38:18.200Z,96387.53
2023-02-22T01:40:49.694Z,96390.13
2023-02-22T01:43:29.647Z,96384.66
2023-02-22T01:46:03.308Z,96383.00
2023-02-22T01:48:38.577Z,96384.81
2023-02-22T01:51:20.108Z,96378.09
2023-02-22T01:53:54.162Z,96377.88
2023-02-22T01:56:23.710Z,96369.00
2023-02-22T01:58:58.370Z,96364.78
2023-02-22T02:01:28.326Z,96369.31
2023-02-22T02:03:59.646Z,96371.25
2023-02-22T02:06:31.521Z,96369.63
2023-02-22T02:09:28.571Z,96370.81
2023-02-22T02:11:56.120Z,96359.56
2023-02-22T02:14:22.894Z,96360.38
2023-02-22T02:16:53.315Z,96363.72
2023-02-22T02:19:45.642Z,96366.88
2023-02-22T02:22:26.976Z,96368.41
2023-02-22T02:25:40.696Z,96367.00
2023-02-22T02:28:25.276Z,96360.41
2023-02-22T02:31:21.384Z,96363.28
2023-02-22T02:34:12.075Z,96353.03
2023-02-22T02:37:01.003Z,96343.78
2023-02-22T02:39:51.169Z,96327.63
2023-02-22T02:42:23.466Z,96337.94
2023-02-22T02:45:02.612Z,96340.72
2023-02-22T02:47:35.671Z,96339.72
2023-02-22T02:50:09.196Z,96334.31
2023-02-22T02:52:37.439Z,96333.88
2023-02-22T02:55:06.996Z,96330.44
2023-02-22T02:57:33.792Z,96332.41
2023-02-22T03:00:00.605Z,96328.00
2023-02-22T03:02:55.104Z,96320.13
2023-02-22T03:05:31.815Z,96313.75
2023-02-22T03:08:31.605Z,96308.03
2023-02-22T03:11:17.432Z,96305.72
2023-02-22T03:14:12.057Z,96302.53
2023-02-22T03:17:04.613Z,96301.38
2023-02-22T03:19:38.554Z,96302.47
2023-02-22T03:22:16.492Z,96292.00
2023-02-22T03:24:58.886Z,96295.41
2023-02-22T03:27:49.108Z,96297.03
2023-02-22T03:30:31.966Z,96297.38
2023-02-22T03:33:12.392Z,96297.75
2023-02-22T03:35:48.868Z,96297.03
2023-02-22T03:38:19.068Z,96290.19
2023-02-22T03:40:51.031Z,96301.94
2023-02-22T03:43:25.923Z,96295.06
2023-02-22T03:45:53.358Z,96287.84
2023-02-22T03:48:41.710Z,96301.94
2023-02-22T03:51:08.591Z,96303.72
2023-02-22T03:53:37.143Z,96306.78
2023-02-22T03:56:08.486Z,96305.00
2023-02-22T03:58:37.713Z,96309.09
2023-02-22T04:01:05.005Z,96316.81
2023-02-22T04:03:31.850Z,96311.13
2023-02-22T04:05:58.638Z,96322.75
2023-02-22T04:08:25.447Z,96323.56
2023-02-22T04:10:52.516Z,96319.94
2023-02-22T04:13:19.389Z,96324.88
2023-02-22T04:15:46.275Z,96323.09
2023-02-22T04:18:14.066Z,96323.69
2023-02-22T04:20:40.902Z,96327.03
2023-02-22T04:23:07.719Z,96331.63
2023-02-22T04:25:34.500Z,96330.25
2023-02-22T04:28:01.322Z,96329.78
2023-02-22T04:30:30.074Z,96317.78
2023-02-22T04:32:57.411Z,96322.56
2023-02-22T04:35:24.408Z,96312.38
2023-02-22T04:37:51.286Z,96307.81
2023-02-22T04:40:18.506Z,96307.16
2023-02-22T04:42:45.286Z,96297.66
2023-02-22T04:45:13.286Z,96301.59
2023-02-22T04:47:40.235Z,96300.94
2023-02-22T04:50:11.022Z,96310.72
2023-02-22T04:52:37.843Z,96296.44
2023-02-22T04:55:05.320Z,96303.97
2023-02-22T04:57:32.508Z,96303.97
2023-02-22T04:59:59.503Z,96314.25
2023-02-22T05:02:26.473Z,96296.38
2023-02-22T05:04:53.414Z,96305.66
2023-02-22T05:07:20.216Z,96301.44
2023-02-22T05:09:47.000Z,96302.09
2023-02-22T05:12:13.817Z,96303.25
2023-02-22T05:14:41.485Z,96296.25
2023-02-22T05:17:08.282Z,96303.44
2023-02-22T05:19:35.123Z,96296.59
2023-02-22T05:22:01.972Z,96294.97
2023-02-22T05:24:28.720Z,96294.63
2023-02-22T05:26:55.529Z,96285.84
2023-02-22T05:29:22.328Z,96289.56
2023-02-22T05:31:49.243Z,96284.03
2023-02-22T05:34:16.569Z,96282.41
2023-02-22T05:36:43.373Z,96272.69
2023-02-22T05:39:10.185Z,96275.28
2023-02-22T05:41:36.931Z,96273.50
2023-02-22T05:44:03.978Z,96268.66
2023-02-22T05:46:30.906Z,96263.91
2023-02-22T05:48:57.816Z,96269.78
2023-02-22T05:51:24.843Z,96273.38
2023-02-22T05:53:52.514Z,96271.75
2023-02-22T05:56:28.641Z,96275.00
2023-02-22T05:58:55.761Z,96286.44
2023-02-22T06:01:23.075Z,96282.88
2023-02-22T06:03:51.676Z,96280.94
2023-02-22T06:06:22.652Z,96277.69
2023-02-22T06:08:49.864Z,96285.03
2023-02-22T06:11:17.162Z,96281.91
2023-02-22T06:13:51.530Z,96287.78
2023-02-22T06:16:19.500Z,96287.78
2023-02-22T06:18:46.825Z,96293.66
2023-02-22T06:21:13.699Z,96288.75
2023-02-22T06:23:40.470Z,96298.19
2023-02-22T06:26:07.318Z,96292.03
2023-02-22T06:28:34.113Z,96299.19
2023-02-22T06:31:00.919Z,96290.84
2023-02-22T06:33:27.719Z,96299.13
2023-02-22T06:35:54.521Z,96291.00
2023-02-22T06:38:24.667Z,96302.50
2023-02-22T06:40:52.100Z,96299.06
2023-02-22T06:43:19.279Z,96304.56
2023-02-22T06:45:46.555Z,96297.66
2023-02-22T06:48:13.909Z,96292.72
2023-02-22T06:50:40.707Z,96301.09
2023-02-22T06:53:07.549Z,96297.75
2023-02-22T06:55:35.613Z,96292.78
2023-02-22T06:58:04.858Z,96299.84
2023-02-22T07:00:32.639Z,96303.88
2023-02-22T07:03:00.521Z,96292.19
2023-02-22T07:05:28.504Z,96304.84
2023-02-22T07:08:02.780Z,96301.69
2023-02-22T07:10:31.522Z,96299.75
2023-02-22T07:12:58.424Z,96302.09
2023-02-22T07:15:27.775Z,96304.91
2023-02-22T07:17:55.088Z,96301.91
2023-02-22T07:20:24.354Z,96302.59
2023-02-22T07:22:51.506Z,96301.19
2023-02-22T07:25:19.649Z,96302.66
2023-02-22T07:27:47.376Z,96300.63
2023-02-22T07:30:25.908Z,96301.34
2023-02-22T07:32:55.098Z,96299.56
2023-02-22T07:35:36.583Z,96300.16
2023-02-22T07:38:06.104Z,96295.66
2023-02-22T07:40:32.881Z,96300.38
2023-02-22T07:43:16.692Z,96291.19
2023-02-22T07:45:44.467Z,96289.50
2023-02-22T07:48:12.603Z,96292.84
2023-02-22T07:50:40.391Z,96292.53
2023-02-22T07:53:12.847Z,96294.28
2023-02-22T07:55:39.691Z,96288.28
2023-02-22T07:58:08.870Z,96295.59
2023-02-22T08:00:40.434Z,96291.88
2023-02-22T08:03:13.453Z,96288.66
2023-02-22T08:05:45.514Z,96291.34
2023-02-22T08:08:12.644Z,96292.28
2023-02-22T08:10:39.415Z,96287.78
2023-02-22T08:13:06.374Z,96286.16
2023-02-22T08:15:36.490Z,96281.97
2023-02-22T08:18:09.094Z,96278.38
2023-02-22T08:20:37.359Z,96268.09
2023-02-22T08:23:05.665Z,96277.09
2023-02-22T08:25:33.034Z,96278.28
2023-02-22T08:28:10.758Z,96271.91
2023-02-22T08:30:40.539Z,96266.97
2023-02-22T08:33:07.714Z,96273.34
2023-02-22T08:35:34.772Z,96268.13
2023-02-22T08:38:05.968Z,96265.84
2023-02-22T08:40:37.324Z,96276.16
2023-02-22T08:43:04.674Z,96270.78
2023-02-22T08:45:31.524Z,96271.28
2023-02-22T08:47:59.417Z,96263.66
2023-02-22T08:50:32.007Z,96265.28
2023-02-22T08:53:01.986Z,96269.25
2023-02-22T08:55:32.895Z,96267.34
2023-02-22T08:58:02.798Z,96264.72
2023-02-22T09:00:33.209Z,96257.03
2023-02-22T09:03:05.788Z,96259.22
2023-02-22T09:05:33.510Z,96259.63
2023-02-22T09:08:01.418Z,96256.84
2023-02-22T09:10:32.160Z,96253.94
2023-02-22T09:13:00.785Z,96254.13
2023-02-22T09:15:28.590Z,96254.00
2023-02-22T09:17:55.912Z,96260.25
2023-02-22T09:20:24.597Z,96248.31
2023-02-22T09:22:52.672Z,96256.75
2023-02-22T09:25:20.974Z,96254.94
2023-02-22T09:27:52.368Z,96247.75
2023-02-22T09:30:31.959Z,96241.22
2023-02-22T09:33:03.586Z,96245.03
2023-02-22T09:35:31.026Z,96241.50
2023-02-22T09:38:00.125Z,96241.34
2023-02-22T09:40:30.803Z,96240.53
2023-02-22T09:43:37.889Z,96234.91
2023-02-22T09:46:37.698Z,96234.88
2023-02-22T09:49:13.832Z,96227.19
2023-02-22T09:51:52.561Z,96225.00
2023-02-22T09:54:35.867Z,96222.41
2023-02-22T09:57:08.634Z,96239.97
2023-02-22T09:59:57.449Z,96227.03
2023-02-22T10:02:31.212Z,96220.84
2023-02-22T10:05:00.946Z,96227.19
2023-02-22T10:07:47.482Z,96219.94
2023-02-22T10:10:23.183Z,96214.22
2023-02-22T10:13:22.151Z,96218.75
2023-02-22T10:16:28.215Z,96219.22
2023-02-22T10:19:22.418Z,96214.00
2023-02-22T10:22:11.314Z,96202.22
2023-02-22T10:25:27.154Z,96210.13
2023-02-22T10:28:19.985Z,96207.13
2023-02-22T10:30:56.430Z,96196.75
2023-02-22T10:33:32.353Z,96203.38
2023-02-22T10:35:59.227Z,96196.84
2023-02-22T10:38:32.687Z,96198.50
2023-02-22T10:41:09.207Z,96186.63
2023-02-22T10:43:40.992Z,96182.72
2023-02-22T10:46:13.453Z,96185.66
2023-02-22T10:48:42.920Z,96181.59
2023-02-22T10:51:10.455Z,96183.38
2023-02-22T10:53:38.587Z,96174.50
2023-02-22T10:56:21.272Z,96177.09
2023-02-22T10:59:05.768Z,96177.34
2023-02-22T11:01:32.585Z,96181.91
2023-02-22T11:04:12.229Z,96165.84
2023-02-22T11:06:42.390Z,96165.31
2023-02-22T11:09:24.495Z,96170.06
2023-02-22T11:12:16.802Z,96160.97
2023-02-22T11:14:43.590Z,96162.97
2023-02-22T11:17:17.630Z,96163.97
2023-02-22T11:19:49.342Z,96159.28
2023-02-22T11:22:41.368Z,96151.19
2023-02-22T11:25:08.846Z,96147.19
2023-02-22T11:27:47.006Z,96145.41
2023-02-22T11:30:32.686Z,96137.09
2023-02-22T11:33:15.901Z,96143.19
2023-02-22T11:36:05.881Z,96137.16
2023-02-22T11:38:36.828Z,96133.00
2023-02-22T11:41:22.875Z,96128.28
2023-02-22T11:43:51.754Z,96117.78
2023-02-22T11:46:30.863Z,96119.28
2023-02-22T11:49:17.796Z,96113.19
2023-02-22T11:52:28.152Z,96109.00
2023-02-22T11:55:36.364Z,96108.19
2023-02-22T11:58:33.324Z,96097.03
2023-02-22T12:01:07.784Z,96100.81
2023-02-22T12:04:22.447Z,96102.81
2023-02-22T12:07:21.758Z,96097.97
2023-02-22T12:10:18.271Z,96098.53
2023-02-22T12:13:19.446Z,96096.75
2023-02-22T12:16:32.623Z,96089.47
2023-02-22T12:19:11.448Z,96082.50
2023-02-22T12:21:43.772Z,96082.63
2023-02-22T12:24:17.091Z,96087.25
2023-02-22T12:26:50.681Z,96081.00
2023-02-22T12:30:07.201Z,96073.66
2023-02-22T12:32:47.469Z,96077.91
2023-02-22T12:35:28.570Z,96072.75
2023-02-22T12:38:13.038Z,96072.47
2023-02-22T12:41:29.775Z,96067.00
2023-02-22T12:44:14.618Z,96061.50
2023-02-22T12:46:47.917Z,96064.81
2023-02-22T12:49:38.641Z,96058.44
2023-02-22T12:52:43.150Z,96049.88
2023-02-22T12:55:17.027Z,96050.13
2023-02-22T12:57:57.125Z,96051.44
2023-02-22T13:00:37.946Z,96043.19
2023-02-22T13:03:39.557Z,96041.34
2023-02-22T13:06:49.557Z,96046.53
2023-02-22T13:09:39.625Z,96044.69
2023-02-22T13:13:04.682Z,96036.91
2023-02-22T13:15:52.836Z,96038.00
2023-02-22T13:18:42.639Z,96035.69
2023-02-22T13:21:37.037Z,96024.66
2023-02-22T13:24:18.532Z,96017.94
2023-02-22T13:27:00.115Z,96015.84
2023-02-22T13:29:34.666Z,96020.34
2023-02-22T13:32:28.514Z,96013.16
2023-02-22T13:35:48.885Z,96008.06
2023-02-22T13:38:57.952Z,96015.09
2023-02-22T13:41:48.266Z,96001.00
2023-02-22T13:44:52.294Z,95997.44
2023-02-22T13:47:50.023Z,95995.84
2023-02-22T13:50:49.697Z,96000.28
2023-02-22T13:53:28.397Z,95997.13
2023-02-22T13:55:59.322Z,95990.75
2023-02-22T13:58:26.671Z,95982.72
2023-02-22T14:00:55.605Z,95987.91
2023-02-22T14:03:23.986Z,95994.63
2023-02-22T14:05:53.821Z,95994.38
2023-02-22T14:08:21.705Z,95984.38
2023-02-22T14:11:00.573Z,95986.31
2023-02-22T14:13:33.358Z,95983.44
2023-02-22T14:16:00.194Z,95981.69
2023-02-22T14:18:41.734Z,95981.72
2023-02-22T14:21:12.536Z,95983.75
2023-02-22T14:23:43.537Z,95985.13
2023-02-22T14:26:22.806Z,95980.44
2023-02-22T14:29:10.352Z,95973.56
2023-02-22T14:31:43.421Z,95979.63
2023-02-22T14:34:34.914Z,95979.28
2023-02-22T14:37:19.899Z,95979.44
2023-02-22T14:39:52.734Z,95980.66
2023-02-22T14:42:28.251Z,95976.47
2023-02-22T14:45:20.008Z,95974.47
2023-02-22T14:48:27.980Z,95984.16
2023-02-22T14:51:11.764Z,95984.41
2023-02-22T14:53:57.428Z,95983.16
2023-02-22T14:56:39.465Z,95976.25
2023-02-22T14:59:24.053Z,95981.16
2023-02-22T15:02:12.783Z,95979.78
2023-02-22T15:04:43.771Z,95979.66
2023-02-22T15:07:29.103Z,95976.50
2023-02-22T15:10:23.869Z,95985.53
2023-02-22T15:13:11.380Z,95988.19
2023-02-22T15:15:54.901Z,95986.06
2023-02-22T15:18:30.094Z,95979.44
2023-02-22T15:21:06.932Z,95976.13
2023-02-22T15:23:54.210Z,95976.06
2023-02-22T15:26:31.105Z,95989.66
2023-02-22T15:28:59.753Z,95974.72
2023-02-22T15:31:39.758Z,95979.69
2023-02-22T15:34:18.978Z,95984.00
2023-02-22T15:36:51.200Z,95982.88
2023-02-22T15:39:29.722Z,95980.63
2023-02-22T15:42:20.872Z,95973.97
2023-02-22T15:44:52.344Z,95977.56
2023-02-22T15:47:18.989Z,95986.34
2023-02-22T15:49:46.773Z,95977.78
2023-02-22T15:52:31.834Z,95978.34
2023-02-22T15:54:58.669Z,95977.81
2023-02-22T15:57:27.363Z,95979.91
2023-02-22T15:59:57.259Z,95977.78
2023-02-22T16:02:37.298Z,95980.97
2023-02-22T16:05:09.909Z,95971.81
2023-02-22T16:07:50.506Z,95970.44
2023-02-22T16:10:33.454Z,95979.75
2023-02-22T16:13:31.484Z,95975.34
2023-02-22T16:16:05.919Z,95981.59
2023-02-22T16:18:36.078Z,95978.09
2023-02-22T16:21:13.917Z,95979.31
2023-02-22T16:24:10.289Z,95982.44
2023-02-22T16:26:41.309Z,95974.94
2023-02-22T16:29:09.586Z,95993.47
2023-02-22T16:31:39.995Z,95992.97
2023-02-22T16:34:08.420Z,95998.44
2023-02-22T16:36:45.026Z,96000.06
2023-02-22T16:39:21.322Z,95998.84
2023-02-22T16:41:48.612Z,96002.25
2023-02-22T16:44:16.886Z,95998.28
2023-02-22T16:46:44.051Z,96009.13
2023-02-22T16:49:12.499Z,96004.16
2023-02-22T16:51:49.908Z,96003.44
2023-02-22T16:54:28.431Z,96012.03
2023-02-22T16:56:57.072Z,96008.75
2023-02-22T16:59:23.922Z,96010.03
2023-02-22T17:01:50.748Z,96018.84
2023-02-22T17:04:24.141Z,96013.53
2023-02-22T17:06:51.437Z,96018.28
2023-02-22T17:09:22.140Z,96021.78
2023-02-22T17:11:51.544Z,96015.16
2023-02-22T17:14:23.207Z,96018.13
2023-02-22T17:16:53.384Z,96018.25
2023-02-22T17:19:24.352Z,96023.44
2023-02-22T17:21:51.176Z,96026.66
2023-02-22T17:24:22.938Z,96035.44
2023-02-22T17:26:53.031Z,96029.94
2023-02-22T17:29:20.616Z,96024.06
2023-02-22T17:31:48.881Z,96029.09
2023-02-22T17:34:15.895Z,96033.84
2023-02-22T17:36:43.100Z,96033.13
2023-02-22T17:39:10.551Z,96030.94
2023-02-22T17:41:40.348Z,96035.75
2023-02-22T17:44:07.733Z,96040.78
2023-02-22T17:46:36.637Z,96039.88
2023-02-22T17:49:03.542Z,96035.84
2023-02-22T17:51:30.401Z,96044.06
2023-02-22T17:53:57.396Z,96040.59
2023-02-22T17:56:24.499Z,96035.59
2023-02-22T17:58:54.898Z,96047.56
2023-02-22T18:01:29.363Z,96041.56
2023-02-22T18:04:02.705Z,96037.78
2023-02-22T18:06:32.549Z,96040.41
2023-02-22T18:09:00.907Z,96036.19
2023-02-22T18:11:32.394Z,96042.91
2023-02-22T18:13:59.358Z,96044.78
2023-02-22T18:16:26.813Z,96038.78
2023-02-22T18:18:56.841Z,96040.16
2023-02-22T18:21:24.144Z,96044.34
2023-02-22T18:23:50.970Z,96041.13
2023-02-22T18:26:21.697Z,96041.78
2023-02-22T18:28:49.169Z,96039.50
2023-02-22T18:31:19.475Z,96046.03
2023-02-22T18:33:49.952Z,96038.13
2023-02-22T18:36:22.542Z,96039.50
2023-02-22T18:38:52.816Z,96042.94
2023-02-22T18:41:25.199Z,96038.31
2023-02-22T18:43:55.035Z,96035.28
2023-02-22T18:46:23.818Z,96044.19
2023-02-22T18:48:55.045Z,96047.38
2023-02-22T18:51:23.216Z,96045.19
2023-02-22T18:53:54.736Z,96044.28
2023-02-22T18:56:22.222Z,96041.41
2023-02-22T18:58:58.640Z,96043.81
2023-02-22T19:01:25.891Z,96048.81
2023-02-22T19:03:53.237Z,96034.63
2023-02-22T19:06:22.488Z,96034.56
2023-02-22T19:08:50.754Z,96042.81
2023-02-22T19:11:22.141Z,96037.56
2023-02-22T19:13:52.102Z,96042.41
2023-02-22T19:16:21.753Z,96040.50
2023-02-22T19:18:52.322Z,96045.72
2023-02-22T19:21:20.310Z,96041.25
2023-02-22T19:23:48.288Z,96040.22
2023-02-22T19:26:23.891Z,96044.91
2023-02-22T19:28:53.438Z,96047.84
2023-02-22T19:31:22.512Z,96045.88
2023-02-22T19:33:52.507Z,96051.34
2023-02-22T19:36:23.014Z,96050.19
2023-02-22T19:38:50.038Z,96061.16
2023-02-22T19:41:21.768Z,96055.34
2023-02-22T19:43:51.485Z,96054.38
2023-02-22T19:46:18.884Z,96058.88
2023-02-22T19:48:45.744Z,96054.00
2023-02-22T19:51:16.750Z,96055.69
2023-02-22T19:53:45.045Z,96059.28
2023-02-22T19:56:18.072Z,96054.50
2023-02-22T19:58:48.262Z,96058.53
2023-02-22T20:01:29.031Z,96060.13
2023-02-22T20:04:08.317Z,96060.56
2023-02-22T20:06:42.278Z,96056.97
2023-02-22T20:09:14.239Z,96066.38
2023-02-22T20:11:41.079Z,96071.91
2023-02-22T20:14:07.942Z,96070.16
2023-02-22T20:16:35.509Z,96064.50
2023-02-22T20:19:02.361Z,96059.25
2023-02-22T20:21:34.625Z,96070.41
2023-02-22T20:24:06.683Z,96069.84
2023-02-22T20:26:36.639Z,96077.53
2023-02-22T20:29:06.142Z,96085.38
2023-02-22T20:31:33.341Z,96090.44
2023-02-22T20:34:02.339Z,96092.63
2023-02-22T20:36:30.423Z,96087.59
2023-02-22T20:38:59.929Z,96089.63
2023-02-22T20:41:32.747Z,96094.88
2023-02-22T20:44:01.711Z,96092.47
2023-02-22T20:46:35.549Z,96088.63
2023-02-22T20:49:07.193Z,96100.13
2023-02-22T20:51:34.988Z,96091.66
2023-02-22T20:54:02.004Z,96095.28
2023-02-22T20:56:32.272Z,96095.09
2023-02-22T20:59:01.976Z,96096.47
2023-02-22T21:01:30.022Z,96094.25
2023-02-22T21:04:06.222Z,96108.22
2023-02-22T21:06:35.548Z,96093.03
2023-02-22T21:09:07.155Z,96090.81
2023-02-22T21:11:35.142Z,96098.50
2023-02-22T21:14:02.432Z,96098.09
2023-02-22T21:16:33.532Z,96092.63
2023-02-22T21:19:04.103Z,96092.00
2023-02-22T21:21:31.862Z,96095.66
2023-02-22T21:24:01.557Z,96083.94
2023-02-22T21:26:31.595Z,96101.69
2023-02-22T21:29:01.149Z,96092.78
2023-02-22T21:31:28.770Z,96099.63
2023-02-22T21:33:58.667Z,96095.16
2023-02-22T21:36:26.658Z,96089.88
2023-02-22T21:38:57.708Z,96086.63
2023-02-22T21:41:31.336Z,96085.03
2023-02-22T21:43:59.864Z,96081.00
2023-02-22T21:46:29.132Z,96086.63
2023-02-22T21:48:58.372Z,96088.03
2023-02-22T21:51:31.325Z,96092.66
2023-02-22T21:54:04.734Z,96089.03
2023-02-22T21:56:36.371Z,96097.53
2023-02-22T21:59:18.750Z,96090.28
2023-02-22T22:01:49.908Z,96088.16
2023-02-22T22:04:23.848Z,96093.78
2023-02-22T22:06:53.282Z,96101.25
2023-02-22T22:09:23.290Z,96092.56
2023-02-22T22:12:01.209Z,96091.44
2023-02-22T22:14:28.293Z,96097.25
2023-02-22T22:16:58.546Z,96090.09
2023-02-22T22:19:30.272Z,96090.97
2023-02-22T22:22:00.799Z,96084.53
2023-02-22T22:24:31.948Z,96083.72
2023-02-22T22:27:03.540Z,96095.91
2023-02-22T22:29:34.151Z,96093.72
2023-02-22T22:32:01.361Z,96090.06
2023-02-22T22:34:29.535Z,96090.31
2023-02-22T22:36:58.086Z,96091.13
2023-02-22T22:39:26.753Z,96093.97
2023-02-22T22:41:53.668Z,96093.75
2023-02-22T22:44:22.297Z,96088.69
2023-02-22T22:46:53.440Z,96082.19
2023-02-22T22:49:20.542Z,96094.94
2023-02-22T22:51:47.468Z,96098.34
2023-02-22T22:54:14.658Z,96101.50
2023-02-22T22:56:41.612Z,96096.53
2023-02-22T22:59:10.594Z,96100.16
2023-02-22T23:01:44.188Z,96106.31
2023-02-22T23:04:16.806Z,96105.03
2023-02-22T23:06:51.890Z,96105.59
2023-02-22T23:09:22.157Z,96102.81
2023-02-22T23:12:01.876Z,96094.94
2023-02-22T23:14:31.049Z,96100.19
2023-02-22T23:17:05.681Z,96098.38
2023-02-22T23:19:35.199Z,96108.91
2023-02-22T23:22:05.407Z,96111.69
2023-02-22T23:24:37.645Z,96111.28
2023-02-22T23:27:10.693Z,96102.34
2023-02-22T23:29:40.816Z,96109.47
2023-02-22T23:32:09.689Z,96111.25
2023-02-22T23:34:38.504Z,96110.63
2023-02-22T23:37:09.749Z,96107.59
2023-02-22T23:39:37.004Z,96106.81
2023-02-22T23:42:03.901Z,96105.44
2023-02-22T23:44:30.881Z,96110.91
2023-02-22T23:46:57.842Z,96109.78
2023-02-22T23:49:35.872Z,96112.50
2023-02-22T23:52:05.072Z,96114.53
2023-02-22T23:54:36.339Z,96112.72
2023-02-22T23:57:04.582Z,96108.91
2023-02-22T23:59:33.155Z,96107.28
